Weather at Good Samaritan Medical Center Heliport [CLOSED]

Public forecast

Using degrees Fahrenheit for public forecast. Weather courtesy of forecast.io.

Closest aviation weather report (METAR) to Good Samaritan Medical Center Heliport

Closest report is Palm Beach International Airport, 3.3 nm (6.1 km) SW.

2024/05/26 20:53 (retrieved 1 hour ago)

KPBI 262053Z 13011KT 10SM FEW038 33/23 A2992 RMK AO2 SLP132 T03330233 56008

Closest aviation forecast (TAF) to Good Samaritan Medical Center Heliport

Closest forecast is Palm Beach International Airport, 3.3 nm (6.1 km) SW.

2024/05/26 21:39 Ammendment (retrieved 16 minutes ago)

TAF AMD KPBI 262030Z 2621/2718 13011KT P6SM VCSH SCT030 SCT050 FM270000 16007KT P6SM FEW035 SCT250 FM270300 VRB05KT P6SM FEW035 FEW250 FM271600 15010KT P6SM FEW030 SCT050